Time;durP1;ratioP1;P1;durP2;ratioP2;P2;SDS_P1;SDS_P2;PMS_P1;PMS_P2;Temp;Humidity;BMP_temperature;BMP_pressure;BME280_temperature;BME280_humidity;BME280_pressure;Samples;Min_cycle;Max_cycle;Signal;HPM_P1;HPM_P2
2020/12/12 00:04:53;;;;;;;59.63;22.67;;;;;;;0.49;100.00;97910.16;4359311;80;44251;-85
2020/12/12 00:10:55;;;;;;;62.23;21.97;;;;;;;0.55;100.00;97901.95;4365306;80;44498;-85
2020/12/12 00:16:58;;;;;;;57.10;21.93;;;;;;;0.59;100.00;97911.13;4350048;80;44098;-85
2020/12/12 00:23:00;;;;;;;57.67;20.82;;;;;;;0.50;100.00;97913.11;4392001;80;44087;-84
2020/12/12 00:29:02;;;;;;;60.10;22.75;;;;;;;0.48;100.00;97908.52;4311708;83;28543;-84
2020/12/12 00:35:05;;;;;;;48.42;20.72;;;;;;;0.32;100.00;97910.97;4289523;83;44159;-86
2020/12/12 00:41:07;;;;;;;53.23;21.05;;;;;;;0.37;100.00;97918.32;4389946;80;44111;-85
2020/12/12 00:47:09;;;;;;;63.38;22.65;;;;;;;0.23;100.00;97919.52;4390976;80;42994;-85
2020/12/12 00:53:11;;;;;;;53.87;20.52;;;;;;;0.37;100.00;97919.13;4390309;80;44158;-84
2020/12/12 00:59:14;;;;;;;58.20;22.62;;;;;;;0.45;100.00;97928.73;4390304;80;44189;-85
2020/12/12 01:05:18;;;;;;;55.98;21.23;;;;;;;0.37;100.00;97924.93;4393519;80;44075;-86
2020/12/12 01:11:20;;;;;;;53.92;20.75;;;;;;;0.41;100.00;97906.34;4391228;80;44099;-84
2020/12/12 01:17:22;;;;;;;55.55;21.23;;;;;;;0.39;100.00;97904.39;4387272;80;44116;-84
2020/12/12 01:23:24;;;;;;;49.93;19.90;;;;;;;0.55;100.00;97906.72;4322870;81;43903;-85
2020/12/12 01:29:27;;;;;;;54.93;21.73;;;;;;;0.48;100.00;97912.49;4364045;80;44129;-85
2020/12/12 01:35:29;;;;;;;50.23;19.70;;;;;;;0.45;100.00;97900.16;4361275;80;43919;-85
2020/12/12 01:41:31;;;;;;;53.17;19.37;;;;;;;0.43;100.00;97915.41;4360805;81;44115;-86
2020/12/12 01:47:35;;;;;;;56.65;19.73;;;;;;;0.50;100.00;97914.44;4402493;80;44154;-84
2020/12/12 01:53:38;;;;;;;55.43;22.05;;;;;;;0.50;100.00;97910.95;4384695;80;44115;-84
2020/12/12 01:59:40;;;;;;;56.98;21.27;;;;;;;0.35;100.00;97899.16;4341049;81;44136;-84
2020/12/12 02:05:45;;;;;;;51.95;19.07;;;;;;;0.30;100.00;97900.27;4361236;80;43903;-84
2020/12/12 02:11:49;;;;;;;44.73;16.17;;;;;;;0.27;100.00;97895.67;4356398;80;42890;-84
2020/12/12 02:17:52;;;;;;;55.52;20.23;;;;;;;0.35;100.00;97886.77;4301288;81;44077;-84
2020/12/12 02:23:54;;;;;;;61.77;21.37;;;;;;;0.11;100.00;97891.98;4315350;82;44460;-84
2020/12/12 02:29:56;;;;;;;51.45;20.00;;;;;;;0.06;100.00;97889.91;4284125;83;43611;-85
2020/12/12 02:35:58;;;;;;;50.00;19.48;;;;;;;0.15;100.00;97883.97;4314690;81;28587;-85
2020/12/12 02:42:01;;;;;;;47.75;18.67;;;;;;;0.28;100.00;97876.65;4315293;81;43738;-84
2020/12/12 02:48:03;;;;;;;53.20;18.45;;;;;;;0.34;100.00;97865.31;4314895;82;44116;-84
2020/12/12 02:54:05;;;;;;;54.90;20.15;;;;;;;0.33;100.00;97869.45;4315492;82;44085;-85
2020/12/12 03:00:14;;;;;;;49.20;19.35;;;;;;;0.25;100.00;97873.08;4315429;81;43765;-85
2020/12/12 03:06:16;;;;;;;45.50;15.18;;;;;;;0.07;100.00;97850.58;4303356;81;43668;-84
2020/12/12 03:12:18;;;;;;;45.48;17.98;;;;;;;0.14;100.00;97870.45;4337620;80;43753;-84
2020/12/12 03:18:20;;;;;;;41.28;16.50;;;;;;;0.12;100.00;97864.54;4353759;81;44455;-85
2020/12/12 03:24:22;;;;;;;42.95;16.67;;;;;;;0.26;100.00;97870.74;4366596;81;43320;-85
2020/12/12 03:30:24;;;;;;;42.33;16.52;;;;;;;0.29;100.00;97859.77;4370383;81;28571;-85
2020/12/12 03:36:26;;;;;;;42.30;15.88;;;;;;;0.32;100.00;97866.02;4370246;81;42941;-85
2020/12/12 03:42:28;;;;;;;50.30;18.02;;;;;;;0.31;100.00;97869.64;4370408;81;28625;-84
2020/12/12 03:48:30;;;;;;;50.65;18.82;;;;;;;0.02;100.00;97843.75;4362963;80;43777;-85
2020/12/12 03:54:32;;;;;;;47.25;17.52;;;;;;;0.15;100.00;97844.32;4370200;80;43729;-85
2020/12/12 04:00:34;;;;;;;50.20;17.50;;;;;;;0.22;100.00;97833.81;4370589;81;43773;-85
2020/12/12 04:06:37;;;;;;;51.42;17.87;;;;;;;0.24;100.00;97845.01;4364044;81;43765;-85
2020/12/12 04:12:39;;;;;;;51.20;18.80;;;;;;;0.21;100.00;97845.38;4370249;81;42909;-85
2020/12/12 04:18:41;;;;;;;51.33;17.75;;;;;;;0.32;100.00;97844.86;4369479;80;43757;-85
2020/12/12 04:24:43;;;;;;;48.95;18.00;;;;;;;0.39;100.00;97838.28;4370215;81;43730;-85
2020/12/12 04:30:46;;;;;;;50.43;18.05;;;;;;;0.36;100.00;97834.69;4370268;81;43348;-85
2020/12/12 04:36:48;;;;;;;52.93;17.75;;;;;;;0.25;100.00;97832.89;4357658;81;43041;-84
2020/12/12 04:42:51;;;;;;;58.73;20.75;;;;;;;0.30;100.00;97832.31;4338201;80;44117;-87
2020/12/12 04:48:53;;;;;;;46.90;16.55;;;;;;;0.12;100.00;97834.97;4372084;80;43756;-85
2020/12/12 04:54:56;;;;;;;42.62;17.37;;;;;;;0.11;100.00;97839.95;4369682;80;28555;-85
2020/12/12 05:00:58;;;;;;;40.03;17.07;;;;;;;0.06;100.00;97837.05;4370355;80;28548;-84
2020/12/12 05:07:00;;;;;;;42.73;16.67;;;;;;;-0.01;100.00;97834.86;4357155;81;44585;-86
2020/12/12 05:13:02;;;;;;;42.08;16.12;;;;;;;-0.03;100.00;97844.32;4371413;81;44423;-86
2020/12/12 05:19:05;;;;;;;35.05;13.05;;;;;;;-0.11;100.00;97844.95;4398362;81;28542;-86
2020/12/12 05:25:07;;;;;;;36.77;13.45;;;;;;;-0.02;100.00;97855.69;4396463;81;44438;-88
2020/12/12 05:31:10;;;;;;;47.00;14.95;;;;;;;-0.21;100.00;97849.25;4389704;80;43298;-85
2020/12/12 05:37:17;;;;;;;31.27;13.05;;;;;;;-0.40;100.00;97864.73;4395902;80;43728;-85
2020/12/12 05:43:19;;;;;;;30.77;12.98;;;;;;;-0.37;100.00;97861.70;4398350;80;44107;-84
2020/12/12 05:49:22;;;;;;;32.13;12.93;;;;;;;-0.38;100.00;97863.23;4395684;80;44103;-86
2020/12/12 05:55:32;;;;;;;30.48;11.60;;;;;;;-0.16;100.00;97858.23;4398247;80;28608;-84
2020/12/12 06:01:38;;;;;;;32.58;12.60;;;;;;;-0.30;100.00;97867.87;4389799;80;43732;-87
2020/12/12 06:07:45;;;;;;;33.42;12.75;;;;;;;-0.23;100.00;97860.52;4397413;80;44103;-88
2020/12/12 06:13:49;;;;;;;35.45;12.63;;;;;;;-0.26;100.00;97866.16;4402468;79;44105;-87
2020/12/12 06:19:52;;;;;;;28.02;12.25;;;;;;;-0.43;100.00;97871.72;4411366;79;43405;-86
2020/12/12 06:25:54;;;;;;;26.97;11.48;;;;;;;-0.31;100.00;97869.41;4406935;80;43417;-87
2020/12/12 06:31:59;;;;;;;30.70;12.18;;;;;;;-0.09;100.00;97874.14;4379344;80;43406;-87
2020/12/12 06:38:30;;;;;;;26.60;11.45;;;;;;;-0.04;100.00;97865.16;4362924;80;43095;-87
2020/12/12 06:44:38;;;;;;;29.67;13.58;;;;;;;-0.25;100.00;97865.98;4357470;80;43439;-87
2020/12/12 06:50:43;;;;;;;33.48;12.82;;;;;;;-0.26;100.00;97869.64;4333717;80;44081;-87
2020/12/12 06:56:46;;;;;;;30.48;12.73;;;;;;;-0.24;100.00;97872.90;4319414;80;43410;-87
2020/12/12 07:03:01;;;;;;;29.48;12.03;;;;;;;-0.22;100.00;97880.13;4252393;82;43413;-86
2020/12/12 07:09:09;;;;;;;30.75;13.08;;;;;;;-0.33;100.00;97879.31;4406790;79;28577;-87
2020/12/12 07:15:12;;;;;;;28.07;12.60;;;;;;;-0.55;100.00;97877.20;4392968;80;43444;-86
2020/12/12 07:21:14;;;;;;;27.87;12.23;;;;;;;-0.61;100.00;97878.77;4358664;80;43383;-88
2020/12/12 07:27:16;;;;;;;33.05;12.65;;;;;;;-0.51;100.00;97875.31;4310791;83;44081;-88
2020/12/12 07:33:18;;;;;;;36.00;12.82;;;;;;;-0.57;100.00;97873.41;4346198;80;44459;-88
2020/12/12 07:39:28;;;;;;;32.40;13.43;;;;;;;-0.53;100.00;97869.38;4369100;80;44391;-87
2020/12/12 07:45:47;;;;;;;36.05;13.83;;;;;;;-0.62;100.00;97871.85;4392507;80;44486;-87
2020/12/12 07:51:36;;;;;;;29.67;12.65;;;;;;;-0.74;100.00;97878.92;4367226;81;43430;-87
2020/12/12 07:57:43;;;;;;;32.80;12.90;;;;;;;-0.74;100.00;97872.31;4358243;81;44097;-88
2020/12/12 08:03:46;;;;;;;35.55;13.88;;;;;;;-0.71;100.00;97871.97;4360706;80;44467;-88
2020/12/12 08:09:51;;;;;;;24.32;10.45;;;;;;;-0.60;100.00;97875.11;4393113;80;28622;-88
2020/12/12 08:22:25;;;;;;;37.23;15.35;;;;;;;-0.44;100.00;97888.05;4617551;76;85213;-85
2020/12/12 08:28:29;;;;;;;28.02;12.40;;;;;;;-0.40;100.00;97889.02;4499086;78;43392;-88
2020/12/12 08:34:32;;;;;;;22.60;10.30;;;;;;;-0.12;100.00;97885.59;4500132;79;44432;-90
2020/12/12 08:40:46;;;;;;;29.60;11.88;;;;;;;-0.02;100.00;97888.73;4486194;78;43391;-88
2020/12/12 08:46:53;;;;;;;25.12;11.25;;;;;;;0.15;100.00;97897.70;4514429;79;43072;-85
2020/12/12 08:52:56;;;;;;;34.75;14.75;;;;;;;-0.02;100.00;97896.66;4514338;78;44136;-87
2020/12/12 08:59:02;;;;;;;30.80;13.70;;;;;;;-0.18;100.00;97897.74;4500132;78;43726;-88
2020/12/12 09:05:10;;;;;;;30.23;13.05;;;;;;;-0.13;100.00;97891.89;4496994;78;43384;-89
2020/12/12 09:11:15;;;;;;;31.37;12.90;;;;;;;-0.13;100.00;97894.53;4510837;78;44129;-86
2020/12/12 09:17:18;;;;;;;32.67;14.55;;;;;;;0.10;100.00;97888.52;4500412;78;28566;-86
2020/12/12 09:23:20;;;;;;;33.78;14.05;;;;;;;0.09;100.00;97894.81;4485714;79;44132;-88
2020/12/12 09:29:23;;;;;;;29.63;12.37;;;;;;;0.22;100.00;97884.84;4475514;78;43454;-89
2020/12/12 09:35:30;;;;;;;33.20;14.78;;;;;;;0.19;100.00;97897.14;4364110;80;44131;-87
2020/12/12 09:41:32;;;;;;;32.03;13.18;;;;;;;0.27;100.00;97889.55;4359527;80;44088;-89
2020/12/12 09:47:35;;;;;;;31.85;13.43;;;;;;;0.25;100.00;97879.16;4352348;82;44092;-87
2020/12/12 09:53:38;;;;;;;30.82;13.58;;;;;;;0.22;100.00;97875.59;4357243;80;28599;-85
2020/12/12 09:59:40;;;;;;;31.07;12.45;;;;;;;0.22;100.00;97880.88;4348267;81;43426;-88
2020/12/12 10:05:42;;;;;;;30.27;13.30;;;;;;;0.41;100.00;97871.44;4361192;80;28567;-89
2020/12/12 10:11:49;;;;;;;38.10;14.65;;;;;;;0.66;100.00;97873.63;4304532;80;28579;-86
2020/12/12 10:17:52;;;;;;;36.83;16.07;;;;;;;0.87;100.00;97876.35;4301241;81;28653;-90
2020/12/12 10:23:54;;;;;;;31.35;14.30;;;;;;;0.94;100.00;97883.83;4323632;80;44178;-86
2020/12/12 10:29:57;;;;;;;40.90;16.25;;;;;;;1.09;100.00;97869.95;4299903;81;28581;-89
2020/12/12 10:36:01;;;;;;;33.75;15.58;;;;;;;1.12;100.00;97872.69;4337583;81;28572;-88
2020/12/12 10:42:03;;;;;;;31.55;13.55;;;;;;;1.02;100.00;97877.05;4366212;80;28551;-88
2020/12/12 10:48:05;;;;;;;33.23;13.88;;;;;;;0.89;100.00;97879.12;4374304;80;28630;-88
2020/12/12 10:54:07;;;;;;;33.78;14.38;;;;;;;1.09;100.00;97879.70;4359973;80;29006;-87
2020/12/12 11:00:11;;;;;;;36.68;13.62;;;;;;;0.70;100.00;97878.02;4348640;80;44475;-89
2020/12/12 11:06:13;;;;;;;33.20;14.53;;;;;;;1.00;100.00;97888.34;4326477;80;44140;-85
2020/12/12 11:12:15;;;;;;;35.83;15.40;;;;;;;0.97;100.00;97890.87;4375184;80;28551;-86
2020/12/12 11:18:17;;;;;;;34.03;14.45;;;;;;;1.01;100.00;97895.76;4338993;80;28575;-86
2020/12/12 11:24:20;;;;;;;29.90;13.20;;;;;;;1.06;100.00;97893.35;4329720;81;28598;-85
2020/12/12 11:30:23;;;;;;;31.37;13.15;;;;;;;1.20;100.00;97894.22;4358951;80;44112;-87
2020/12/12 11:43:11;;;;;;;38.53;15.35;;;;;;;1.15;100.00;97893.98;4374909;80;28566;-82
2020/12/12 11:48:54;;;;;;;37.73;15.48;;;;;;;1.24;100.00;97893.59;4343272;80;28550;-82
2020/12/12 11:54:56;;;;;;;45.25;16.73;;;;;;;1.22;100.00;97892.98;4350713;80;28580;-84
2020/12/12 12:00:59;;;;;;;34.63;14.35;;;;;;;1.25;100.00;97891.78;4356414;80;28580;-82
2020/12/12 12:07:03;;;;;;;35.23;14.35;;;;;;;1.46;100.00;97891.32;4374761;80;28593;-82
2020/12/12 12:13:05;;;;;;;39.88;16.67;;;;;;;1.51;100.00;97901.62;4346453;81;28633;-83
2020/12/12 12:19:11;;;;;;;42.95;17.40;;;;;;;1.41;100.00;97904.34;4354461;80;28553;-85
2020/12/12 12:25:13;;;;;;;;;;;;;;;1.28;100.00;97911.75;4375262;80;28544;-84
2020/12/12 12:31:20;;;;;;;38.00;16.27;;;;;;;1.33;100.00;97907.98;4337753;80;44502;-83
2020/12/12 12:37:23;;;;;;;34.43;14.28;;;;;;;1.24;100.00;97914.78;4370158;80;28572;-85
2020/12/12 12:43:26;;;;;;;40.08;16.75;;;;;;;1.51;100.00;97910.89;4352837;81;28555;-88
2020/12/12 12:49:29;;;;;;;37.88;15.60;;;;;;;1.41;100.00;97914.93;4359439;80;28626;-88
2020/12/12 12:55:31;;;;;;;33.20;13.98;;;;;;;1.39;100.00;97921.25;4370314;80;28551;-84
2020/12/12 13:01:33;;;;;;;37.20;16.05;;;;;;;1.56;100.00;97911.63;4377104;80;28614;-85
2020/12/12 13:07:35;;;;;;;36.63;15.63;;;;;;;1.61;100.00;97918.97;4379606;80;28563;-87
2020/12/12 13:13:39;;;;;;;39.67;15.93;;;;;;;1.63;100.00;97923.06;4370469;80;28536;-88
2020/12/12 13:19:50;;;;;;;42.20;17.77;;;;;;;1.55;100.00;97921.91;4358526;80;28553;-84
2020/12/12 13:25:51;;;;;;;39.75;16.50;;;;;;;1.58;100.00;97931.30;4370820;80;28554;-88
2020/12/12 13:31:54;;;;;;;34.10;14.60;;;;;;;1.64;100.00;97942.41;4363708;80;28653;-85
2020/12/12 13:37:57;;;;;;;35.33;14.90;;;;;;;1.56;100.00;97946.06;4373643;80;28646;-82
2020/12/12 13:43:59;;;;;;;38.80;16.02;;;;;;;1.76;100.00;97950.59;4375837;81;28619;-86
2020/12/12 13:50:03;;;;;;;39.50;16.00;;;;;;;1.69;100.00;97955.06;4382019;80;44423;-87
2020/12/12 13:56:06;;;;;;;36.63;14.80;;;;;;;1.73;100.00;97944.39;4354609;80;28613;-87
2020/12/12 14:02:11;;;;;;;39.30;15.38;;;;;;;1.71;100.00;97947.72;4342771;80;28591;-90
2020/12/12 14:08:18;;;;;;;33.90;14.95;;;;;;;1.80;100.00;97944.70;4341560;81;28638;-84
2020/12/12 14:33:19;;;;;;;41.33;16.55;;;;;;;1.78;100.00;97945.41;4365251;81;28556;-86
2020/12/12 14:39:21;;;;;;;39.48;15.32;;;;;;;1.59;100.00;97954.93;4350157;80;28574;-85
2020/12/12 14:45:23;;;;;;;40.38;17.15;;;;;;;1.56;100.00;97963.28;4376328;80;28592;-82
2020/12/12 14:51:26;;;;;;;46.85;17.90;;;;;;;1.43;100.00;97968.55;4303269;81;28551;-83
2020/12/12 14:57:31;;;;;;;46.68;17.85;;;;;;;1.53;100.00;97971.64;4310535;81;28539;-85
2020/12/12 15:03:33;;;;;;;44.98;17.87;;;;;;;1.52;100.00;97980.61;4376970;80;28569;-85
2020/12/12 15:09:36;;;;;;;49.08;17.77;;;;;;;1.51;100.00;97990.87;4355876;81;28555;-87
2020/12/12 15:15:38;;;;;;;42.90;17.07;;;;;;;1.55;100.00;97982.85;4335962;80;28540;-91
2020/12/12 15:21:41;;;;;;;49.05;17.60;;;;;;;1.44;100.00;97983.42;4355316;80;28588;-85
2020/12/12 15:27:43;;;;;;;46.37;17.75;;;;;;;1.42;100.00;97988.91;4343503;80;28555;-86
2020/12/12 15:33:46;;;;;;;41.92;17.15;;;;;;;1.49;100.00;97984.46;4361220;80;28539;-83
2020/12/12 15:39:49;;;;;;;54.40;20.15;;;;;;;1.49;100.00;97995.06;4353488;80;28594;-87
2020/12/12 15:45:51;;;;;;;50.38;18.30;;;;;;;1.45;100.00;98007.05;4316678;81;28551;-91
2020/12/12 15:51:53;;;;;;;51.83;18.75;;;;;;;1.40;100.00;98006.84;4361677;81;28560;-92
2020/12/12 15:57:55;;;;;;;56.00;19.82;;;;;;;1.51;100.00;98014.22;4370091;81;44158;-90
2020/12/12 16:03:58;;;;;;;51.30;18.90;;;;;;;1.42;100.00;98010.09;4348839;79;28544;-89
2020/12/12 16:10:00;;;;;;;54.80;18.90;;;;;;;1.38;100.00;98007.02;4356626;81;28542;-93
2020/12/12 16:16:04;;;;;;;61.02;19.87;;;;;;;1.64;100.00;98007.33;4377936;80;44088;-92
2020/12/12 16:22:08;;;;;;;55.03;20.68;;;;;;;1.69;100.00;98011.53;4293752;81;28568;-93
2020/12/12 16:28:10;;;;;;;55.20;20.10;;;;;;;1.77;100.00;98009.21;4357205;80;28601;-86
2020/12/12 16:34:13;;;;;;;55.73;20.30;;;;;;;1.75;100.00;98019.20;4356487;80;28608;-83
2020/12/12 16:40:15;;;;;;;55.30;19.25;;;;;;;1.70;100.00;98019.80;4347636;80;28626;-85
2020/12/12 16:46:17;;;;;;;57.58;21.12;;;;;;;1.73;100.00;98022.56;4347622;80;28538;-84
2020/12/12 16:52:19;;;;;;;50.78;19.62;;;;;;;1.87;100.00;98020.25;4348420;81;28589;-88
2020/12/12 16:58:22;;;;;;;57.45;20.77;;;;;;;1.88;100.00;98038.31;4359706;80;28549;-86
2020/12/12 17:04:25;;;;;;;55.65;20.32;;;;;;;1.93;100.00;98038.02;4346279;81;44190;-90
2020/12/12 17:10:29;;;;;;;51.92;20.80;;;;;;;1.83;100.00;98031.45;4365056;80;28582;-88
2020/12/12 17:16:33;;;;;;;45.30;18.23;;;;;;;1.70;100.00;98035.70;4340839;80;28583;-86
2020/12/12 17:22:42;;;;;;;48.33;19.17;;;;;;;1.77;100.00;98050.29;4345065;80;28595;-86
2020/12/12 17:28:44;;;;;;;51.00;21.55;;;;;;;1.89;100.00;98055.32;4302565;81;28645;-85
2020/12/12 17:34:47;;;;;;;48.63;18.48;;;;;;;1.81;100.00;98052.34;4299449;81;28587;-90
2020/12/12 17:40:51;;;;;;;53.65;20.37;;;;;;;1.91;100.00;98053.28;4399353;79;28581;-87
2020/12/12 17:46:57;;;;;;;59.55;21.10;;;;;;;1.81;100.00;98055.00;4398086;80;28605;-90
2020/12/12 17:53:00;;;;;;;59.73;21.37;;;;;;;1.74;100.00;98050.70;4368615;80;28591;-89
2020/12/12 17:59:03;;;;;;;52.70;20.12;;;;;;;1.80;100.00;98063.14;4321373;81;28567;-89
2020/12/12 18:05:06;;;;;;;49.30;19.85;;;;;;;1.83;100.00;98071.20;4314305;81;43734;-86
2020/12/12 18:11:09;;;;;;;56.58;21.35;;;;;;;1.83;100.00;98069.39;4303183;81;28666;-86
2020/12/12 18:17:11;;;;;;;53.30;20.80;;;;;;;1.79;100.00;98074.27;4285726;81;28598;-88
2020/12/12 18:23:13;;;;;;;52.55;19.90;;;;;;;1.89;100.00;98083.16;4378339;80;28597;-87
2020/12/12 18:29:18;;;;;;;53.63;19.67;;;;;;;1.87;100.00;98078.56;4339915;80;28588;-85
2020/12/12 18:35:24;;;;;;;52.60;20.00;;;;;;;1.99;100.00;98093.90;4355311;80;28569;-84
2020/12/12 18:41:27;;;;;;;45.60;18.40;;;;;;;1.99;100.00;98087.27;4355977;80;28570;-87
2020/12/12 18:47:29;;;;;;;50.05;20.82;;;;;;;1.97;100.00;98090.63;4355630;80;28630;-86
2020/12/12 18:53:32;;;;;;;55.48;21.95;;;;;;;1.97;100.00;98099.39;4354558;81;28553;-86
2020/12/12 18:59:35;;;;;;;47.95;19.27;;;;;;;1.90;100.00;98102.55;4330140;80;28601;-87
2020/12/12 19:05:37;;;;;;;47.10;18.45;;;;;;;1.88;100.00;98104.58;4370152;80;28645;-85
2020/12/12 19:11:41;;;;;;;47.55;17.02;;;;;;;1.92;100.00;98111.91;4338640;80;28548;-84
2020/12/12 19:17:43;;;;;;;45.10;18.62;;;;;;;1.90;100.00;98122.42;4365860;80;28572;-84
2020/12/12 19:23:46;;;;;;;42.60;17.50;;;;;;;1.88;100.00;98129.77;4350188;80;28579;-84
2020/12/12 19:29:52;;;;;;;43.75;16.70;;;;;;;1.85;100.00;98142.06;4351647;80;28548;-84
2020/12/12 19:35:54;;;;;;;48.40;19.20;;;;;;;1.90;100.00;98136.48;4345529;80;28561;-84
2020/12/12 19:41:59;;;;;;;51.55;19.80;;;;;;;1.86;100.00;98141.05;4381179;80;28597;-84
2020/12/12 19:48:01;;;;;;;49.98;18.60;;;;;;;1.81;100.00;98141.63;4340348;80;28567;-82
2020/12/12 19:54:03;;;;;;;53.42;19.73;;;;;;;1.75;100.00;98150.39;4369700;80;28583;-83
2020/12/12 20:00:06;;;;;;;45.03;18.32;;;;;;;1.65;100.00;98153.38;4356187;80;43807;-85
2020/12/12 20:06:11;;;;;;;48.75;19.23;;;;;;;1.64;100.00;98153.90;4357021;80;28538;-83
2020/12/12 20:12:14;;;;;;;47.08;18.52;;;;;;;1.57;100.00;98158.33;4343297;80;28607;-84
2020/12/12 20:18:21;;;;;;;42.53;17.87;;;;;;;1.74;100.00;98168.63;4356730;80;28557;-84
2020/12/12 20:24:25;;;;;;;39.35;16.25;;;;;;;1.76;100.00;98176.67;4378725;80;28585;-83
2020/12/12 20:30:28;;;;;;;38.13;15.88;;;;;;;1.71;100.00;98176.95;4395902;79;44434;-80
2020/12/12 20:36:31;;;;;;;40.30;16.97;;;;;;;1.85;100.00;98186.63;4382012;80;28617;-82
2020/12/12 20:42:33;;;;;;;41.13;17.37;;;;;;;1.71;100.00;98184.41;4365755;80;28573;-80
2020/12/12 20:48:36;;;;;;;45.60;18.07;;;;;;;1.70;100.00;98183.27;4385707;80;28618;-81
2020/12/12 20:54:38;;;;;;;43.02;16.52;;;;;;;1.57;100.00;98183.50;4378074;80;28665;-82
2020/12/12 21:00:43;;;;;;;46.48;17.60;;;;;;;1.61;100.00;98188.71;4308767;81;28583;-83
2020/12/12 21:06:45;;;;;;;42.15;16.37;;;;;;;1.72;100.00;98191.84;4388074;80;28639;-82
2020/12/12 21:12:48;;;;;;;40.03;16.60;;;;;;;1.72;100.00;98201.94;4361629;80;28622;-82
2020/12/12 21:18:51;;;;;;;44.38;17.00;;;;;;;1.74;100.00;98212.36;4301615;81;43735;-82
2020/12/12 21:24:55;;;;;;;43.30;16.50;;;;;;;1.64;100.00;98219.31;4395667;80;28568;-83
2020/12/12 21:30:57;;;;;;;40.95;16.32;;;;;;;1.52;100.00;98232.30;4276005;81;29081;-83
2020/12/12 21:46:21;;;;;;;35.28;14.47;;;;;;;1.24;100.00;98225.94;4463486;79;78040;-79
2020/12/12 21:52:24;;;;;;;36.40;14.10;;;;;;;1.42;100.00;98225.18;4417912;80;44489;-81
2020/12/12 21:58:29;;;;;;;32.38;14.15;;;;;;;1.20;100.00;98228.66;4420222;80;28565;-83
2020/12/12 22:10:46;;;;;;;36.38;13.53;;;;;;;1.63;100.00;98240.20;4457824;79;84968;-82
2020/12/12 22:16:53;;;;;;;34.90;14.15;;;;;;;1.39;100.00;98244.92;4322488;80;44082;-83
2020/12/12 22:22:55;;;;;;;34.60;13.03;;;;;;;1.43;100.00;98252.78;4253978;81;28617;-80
2020/12/12 22:28:58;;;;;;;36.03;14.33;;;;;;;1.42;100.00;98255.13;4327950;80;28615;-78
2020/12/12 22:35:07;;;;;;;40.03;15.53;;;;;;;1.38;100.00;98261.83;4250421;81;29072;-81
2020/12/12 22:41:10;;;;;;;32.10;13.15;;;;;;;1.50;100.00;98273.53;4320798;80;28541;-82
2020/12/12 22:47:12;;;;;;;33.42;13.50;;;;;;;1.60;100.00;98268.42;4237884;81;28963;-81
2020/12/12 22:53:17;;;;;;;33.83;13.80;;;;;;;1.48;100.00;98278.21;4306601;80;28651;-81
2020/12/12 22:59:19;;;;;;;34.63;15.05;;;;;;;1.36;100.00;98277.09;4245125;83;44289;-85
2020/12/12 23:05:21;;;;;;;28.62;12.13;;;;;;;1.44;100.00;98288.05;4316327;80;28713;-85
2020/12/12 23:11:24;;;;;;;34.88;13.95;;;;;;;1.64;100.00;98284.23;4328948;80;28563;-83
2020/12/12 23:17:27;;;;;;;32.38;13.72;;;;;;;1.37;100.00;98297.27;4333050;80;28616;-82
2020/12/12 23:23:30;;;;;;;33.55;14.07;;;;;;;1.41;100.00;98292.39;4340573;80;28578;-82
2020/12/12 23:29:32;;;;;;;31.70;13.13;;;;;;;1.38;100.00;98293.09;4314075;80;28559;-81
2020/12/12 23:35:34;;;;;;;36.60;15.48;;;;;;;1.39;100.00;98298.70;4339111;80;28618;-83
2020/12/12 23:41:37;;;;;;;32.58;14.35;;;;;;;1.16;100.00;98296.75;4351266;80;28549;-80
2020/12/12 23:53:54;;;;;;;34.50;14.70;;;;;;;1.51;100.00;98298.19;4371372;79;77179;-80
2020/12/12 23:59:56;;;;;;;34.95;14.25;;;;;;;1.29;100.00;98306.66;4313354;80;28556;-81
